Time;durP1;ratioP1;P1;durP2;ratioP2;P2;SDS_P1;SDS_P2;PMS_P1;PMS_P2;Temp;Humidity;BMP_temperature;BMP_pressure;BME280_temperature;BME280_humidity;BME280_pressure;Samples;Min_cycle;Max_cycle;Signal;HPM_P1;HPM_P2
2022/04/25 00:01:09;;;;;;;19.08;7.80;;;;;;;-146.64;100.00;89646.09;5010558;28;20095;-80
2022/04/25 00:03:35;;;;;;;12.57;7.40;;;;;;;-146.64;100.00;88585.03;5016053;28;20029;-80
2022/04/25 00:06:00;;;;;;;11.73;7.20;;;;;;;-146.64;100.00;88585.03;5009846;28;20034;-79
2022/04/25 00:08:26;;;;;;;17.25;8.30;;;;;;;-146.64;100.00;88850.28;4997528;28;20041;-79
2022/04/25 00:10:52;;;;;;;15.18;8.18;;;;;;;-146.64;100.00;89115.53;5016728;28;20026;-80
2022/04/25 00:13:18;;;;;;;20.65;8.02;;;;;;;-146.64;100.00;89646.09;5021833;28;20465;-79
2022/04/25 00:15:43;;;;;;;15.52;7.43;;;;;;;-146.64;100.00;89646.09;5006053;28;20083;-79
2022/04/25 00:18:09;;;;;;;15.07;8.30;;;;;;;-146.64;100.00;90442.06;4996704;28;20033;-79
2022/04/25 00:20:34;;;;;;;18.73;7.88;;;;;;;-146.64;100.00;90176.72;4992348;28;20347;-79
2022/04/25 00:23:04;;;;;;;18.08;8.48;;;;;;;-146.64;100.00;91238.19;4997201;28;20037;-80
2022/04/25 00:25:32;;;;;;;11.45;7.47;;;;;;;-146.64;100.00;91769.03;5011863;28;20037;-81
2022/04/25 00:28:01;;;;;;;18.40;8.07;;;;;;;-146.64;100.00;92299.94;5013344;28;20049;-80
2022/04/25 00:30:30;;;;;;;13.07;7.45;;;;;;;-146.64;100.00;92830.91;5013887;28;20070;-79
2022/04/25 00:32:59;;;;;;;18.83;8.00;;;;;;;-146.64;100.00;93627.50;5006587;28;20425;-81
2022/04/25 00:35:25;;;;;;;17.77;8.00;;;;;;;-146.64;100.00;93627.50;5015263;28;20068;-79
2022/04/25 00:37:51;;;;;;;21.03;8.47;;;;;;;-146.64;100.00;94158.66;4991522;28;20014;-80
2022/04/25 00:40:21;;;;;;;24.90;8.65;;;;;;;-146.64;100.00;94158.66;5011095;28;20321;-80
2022/04/25 00:42:46;;;;;;;22.02;8.55;;;;;;;-146.64;100.00;94689.88;5006763;28;20106;-79
2022/04/25 00:45:14;;;;;;;17.42;8.48;;;;;;;-146.64;100.00;93893.06;5010054;28;20052;-79
2022/04/25 00:47:40;;;;;;;15.50;8.63;;;;;;;-146.64;100.00;93627.50;4991615;28;20030;-79
2022/04/25 00:50:07;;;;;;;16.20;8.63;;;;;;;-146.64;100.00;93893.06;5009178;28;20038;-80
2022/04/25 00:52:34;;;;;;;18.92;7.55;;;;;;;-146.64;100.00;92830.91;5005329;28;20105;-80
2022/04/25 00:55:00;;;;;;;;;;;;;;;-146.64;100.00;93361.97;5016258;28;20385;-80
2022/04/25 00:57:27;;;;;;;14.25;8.05;;;;;;;-146.64;100.00;93096.44;5000534;28;19917;-79
2022/04/25 00:59:54;;;;;;;15.25;9.23;;;;;;;-146.64;100.00;92830.91;5000844;28;20040;-79
2022/04/25 01:02:19;;;;;;;17.42;8.68;;;;;;;-146.64;100.00;92034.47;4988935;28;20037;-79
2022/04/25 01:04:46;;;;;;;19.27;8.07;;;;;;;-146.64;100.00;91238.19;5013850;28;20475;-79
2022/04/25 01:07:12;;;;;;;17.17;8.10;;;;;;;-146.64;100.00;90972.78;5013300;28;20358;-79
2022/04/25 01:09:38;;;;;;;13.80;7.43;;;;;;;-146.64;100.00;90442.06;4997899;28;20030;-78
2022/04/25 01:12:04;;;;;;;14.30;8.00;;;;;;;-146.64;100.00;90972.78;5007602;28;20060;-79
2022/04/25 01:14:30;;;;;;;19.45;8.38;;;;;;;-146.64;100.00;90442.06;4981946;28;20493;-79
2022/04/25 01:16:55;;;;;;;16.38;8.38;;;;;;;-146.64;100.00;89646.09;5020283;28;20107;-77
2022/04/25 01:19:21;;;;;;;13.32;8.23;;;;;;;-146.64;100.00;89911.41;5012542;28;20132;-78
2022/04/25 01:21:59;;;;;;;13.70;8.40;;;;;;;-146.64;100.00;89115.53;5015509;28;20022;-80
2022/04/25 01:27:16;;;;;;;15.75;7.43;;;;;;;-146.64;100.00;89380.81;5004369;28;20036;-79
2022/04/25 01:29:43;;;;;;;17.77;7.90;;;;;;;-146.64;100.00;88319.81;5000105;28;20041;-80
2022/04/25 01:32:08;;;;;;;20.10;8.77;;;;;;;-146.64;100.00;88319.81;5013556;28;20034;-80
2022/04/25 01:34:37;;;;;;;17.27;8.73;;;;;;;-146.64;100.00;89646.09;4988916;28;20025;-79
2022/04/25 01:37:08;;;;;;;18.30;8.15;;;;;;;-146.64;100.00;89115.53;5003120;28;20122;-79
2022/04/25 01:39:35;;;;;;;14.73;8.85;;;;;;;-146.64;100.00;88585.03;5004422;28;20527;-79
2022/04/25 01:42:04;;;;;;;17.23;8.05;;;;;;;-146.64;100.00;88850.28;4986003;28;20026;-80
2022/04/25 01:44:29;;;;;;;19.60;8.98;;;;;;;-146.64;100.00;89646.09;5003985;28;20111;-80
2022/04/25 01:46:55;;;;;;;16.08;8.80;;;;;;;-146.64;100.00;89380.81;5001080;28;20033;-80
2022/04/25 01:49:20;;;;;;;14.68;8.57;;;;;;;-146.64;100.00;89646.09;5020045;28;20045;-80
2022/04/25 01:51:46;;;;;;;11.93;9.00;;;;;;;-146.64;100.00;90442.06;4999154;28;20021;-79
2022/04/25 01:54:12;;;;;;;14.85;9.38;;;;;;;-146.64;100.00;90442.06;5008996;28;20093;-79
2022/04/25 01:56:37;;;;;;;17.45;9.23;;;;;;;-146.64;100.00;92299.94;5027220;28;20048;-78
2022/04/25 01:59:03;;;;;;;15.40;9.25;;;;;;;-146.64;100.00;92565.41;5018151;28;20960;-79
2022/04/25 02:01:28;;;;;;;17.58;9.85;;;;;;;-146.64;100.00;92565.41;5010204;28;20025;-80
2022/04/25 02:03:53;;;;;;;15.98;9.60;;;;;;;-146.64;100.00;92565.41;5000416;28;20080;-79
2022/04/25 02:06:20;;;;;;;19.38;9.07;;;;;;;-146.64;100.00;92299.94;4989147;28;20080;-80
2022/04/25 02:08:46;;;;;;;20.67;9.48;;;;;;;-146.64;100.00;92034.47;5003452;28;20068;-80
2022/04/25 02:11:21;;;;;;;19.47;8.93;;;;;;;-146.64;100.00;91769.03;5000240;28;20483;-79
2022/04/25 02:13:51;;;;;;;18.02;9.52;;;;;;;-146.64;100.00;92565.41;4985370;28;20283;-79
2022/04/25 02:16:17;;;;;;;19.02;9.77;;;;;;;-146.64;100.00;92034.47;4979085;28;20091;-79
2022/04/25 02:18:42;;;;;;;19.52;10.95;;;;;;;-146.64;100.00;92830.91;4999458;28;20033;-79
2022/04/25 02:21:08;;;;;;;20.67;9.07;;;;;;;-146.64;100.00;93361.97;5002573;28;20037;-79
2022/04/25 02:23:33;;;;;;;14.90;9.13;;;;;;;-146.64;100.00;93096.44;5010130;28;20028;-80
2022/04/25 02:25:59;;;;;;;24.15;9.52;;;;;;;-146.64;100.00;92565.41;5030521;28;20029;-79
2022/04/25 02:28:26;;;;;;;14.27;9.02;;;;;;;-146.64;100.00;92830.91;4996010;28;20033;-81
2022/04/25 02:30:52;;;;;;;20.25;9.68;;;;;;;-146.64;100.00;92565.41;5000185;28;20477;-80
2022/04/25 02:33:18;;;;;;;19.65;9.73;;;;;;;-146.64;100.00;92830.91;5016050;28;20009;-81
2022/04/25 02:35:44;;;;;;;16.77;9.83;;;;;;;-146.64;100.00;92830.91;5002583;28;20092;-80
2022/04/25 02:38:10;;;;;;;20.90;9.77;;;;;;;-146.64;100.00;93627.50;5014225;28;20798;-80
2022/04/25 02:40:35;;;;;;;18.75;10.00;;;;;;;-146.64;100.00;93627.50;4993660;28;20064;-81
2022/04/25 02:43:00;;;;;;;21.63;10.45;;;;;;;-146.64;100.00;93361.97;5019100;28;22264;-80
2022/04/25 02:45:26;;;;;;;23.88;10.18;;;;;;;-146.64;100.00;93893.06;5023843;28;20030;-79
2022/04/25 02:47:53;;;;;;;15.45;8.90;;;;;;;-146.64;100.00;93893.06;5001615;28;20029;-80
2022/04/25 02:50:18;;;;;;;;;;;;;;;-146.64;100.00;93361.97;4999440;28;20025;-79
2022/04/25 02:52:43;;;;;;;16.35;9.57;;;;;;;-146.64;100.00;92565.41;5014964;28;19982;-80
2022/04/25 02:55:10;;;;;;;16.20;9.13;;;;;;;-146.64;100.00;92830.91;5009559;28;20033;-79
2022/04/25 02:57:35;;;;;;;17.83;9.75;;;;;;;-146.64;100.00;92565.41;4992476;28;20065;-80
2022/04/25 03:00:01;;;;;;;19.70;10.15;;;;;;;-146.64;100.00;92830.91;5004123;28;20389;-80
2022/04/25 03:02:26;;;;;;;16.77;10.15;;;;;;;-146.64;100.00;92299.94;4999624;28;20053;-79
2022/04/25 03:04:52;;;;;;;15.98;9.48;;;;;;;-146.64;100.00;92299.94;5001047;28;20100;-80
2022/04/25 03:07:17;;;;;;;21.23;9.60;;;;;;;-146.64;100.00;92034.47;4999026;28;20104;-80
2022/04/25 03:09:42;;;;;;;23.23;9.98;;;;;;;-146.64;100.00;91769.03;4983928;28;20038;-79
2022/04/25 03:12:09;;;;;;;25.17;10.70;;;;;;;-146.64;100.00;92034.47;5016327;28;20035;-80
2022/04/25 03:14:34;;;;;;;23.38;10.52;;;;;;;-146.64;100.00;92565.41;4992580;28;20033;-80
2022/04/25 03:17:01;;;;;;;18.47;9.27;;;;;;;-146.64;100.00;92299.94;4986468;28;20126;-81
2022/04/25 03:19:26;;;;;;;20.60;10.43;;;;;;;-146.64;100.00;92565.41;5014045;28;20085;-79
2022/04/25 03:21:54;;;;;;;15.90;10.43;;;;;;;-146.64;100.00;92565.41;4997185;28;20033;-79
2022/04/25 03:24:19;;;;;;;27.25;11.02;;;;;;;-146.64;100.00;91503.59;5027191;28;20046;-80
2022/04/25 03:26:45;;;;;;;18.90;10.52;;;;;;;-146.64;100.00;91503.59;5014774;28;20033;-79
2022/04/25 03:29:11;;;;;;;12.90;9.70;;;;;;;-146.64;100.00;89911.41;4993005;28;20100;-79
2022/04/25 03:31:37;;;;;;;21.98;10.45;;;;;;;-146.64;100.00;90176.72;5021912;28;20143;-80
2022/04/25 03:34:03;;;;;;;21.73;11.40;;;;;;;-146.64;100.00;90972.78;5029487;28;20500;-79
2022/04/25 03:36:28;;;;;;;18.23;10.68;;;;;;;-146.64;100.00;91238.19;5019204;28;20052;-79
2022/04/25 03:38:53;;;;;;;18.40;10.50;;;;;;;-146.64;100.00;91238.19;5028241;28;20041;-80
2022/04/25 03:41:21;;;;;;;25.10;10.90;;;;;;;-146.64;100.00;91769.03;5019838;28;20037;-80
2022/04/25 03:43:46;;;;;;;18.92;10.38;;;;;;;-146.64;100.00;91769.03;5000641;28;20033;-80
2022/04/25 03:46:12;;;;;;;24.00;10.00;;;;;;;-146.64;100.00;91769.03;5016260;28;20565;-80
2022/04/25 03:48:41;;;;;;;16.40;10.18;;;;;;;-146.64;100.00;90972.78;5007153;28;20059;-80
2022/04/25 03:51:06;;;;;;;23.52;10.80;;;;;;;-146.64;100.00;90972.78;5015539;28;20041;-79
2022/04/25 03:53:32;;;;;;;22.38;10.85;;;;;;;-146.64;100.00;91769.03;5008569;28;20047;-79
2022/04/25 03:58:41;;;;;;;16.73;10.43;;;;;;;-146.64;100.00;90707.41;5016211;28;20079;-80
2022/04/25 04:01:06;;;;;;;15.73;9.32;;;;;;;-146.64;100.00;90176.72;5001177;28;20447;-81
2022/04/25 04:03:34;;;;;;;19.83;10.43;;;;;;;-146.64;100.00;91238.19;5023697;28;20045;-81
2022/04/25 04:06:00;;;;;;;25.50;10.63;;;;;;;-146.64;100.00;90972.78;5035924;28;20021;-81
2022/04/25 04:08:25;;;;;;;19.52;11.23;;;;;;;-146.64;100.00;91238.19;4999262;28;20125;-80
2022/04/25 04:10:50;;;;;;;20.85;10.15;;;;;;;-146.64;100.00;90972.78;5011626;28;20029;-80
2022/04/25 04:13:16;;;;;;;25.90;10.23;;;;;;;-146.64;100.00;90972.78;4994854;28;20029;-79
2022/04/25 04:15:41;;;;;;;22.20;10.95;;;;;;;-146.64;100.00;90972.78;5014666;28;20018;-79
2022/04/25 04:18:06;;;;;;;20.10;9.57;;;;;;;-146.64;100.00;92034.47;5013559;28;20602;-80
2022/04/25 04:20:34;;;;;;;22.60;11.18;;;;;;;-146.64;100.00;92565.41;4998847;28;20045;-80
2022/04/25 04:23:00;;;;;;;22.27;9.93;;;;;;;-146.64;100.00;92830.91;5029312;28;20037;-79
2022/04/25 04:25:26;;;;;;;22.35;10.75;;;;;;;-146.64;100.00;92299.94;5016384;28;20502;-81
2022/04/25 04:27:51;;;;;;;25.20;11.20;;;;;;;-146.64;100.00;93096.44;5035872;28;20064;-79
2022/04/25 04:30:18;;;;;;;17.33;10.85;;;;;;;-146.64;100.00;93627.50;4995562;28;20072;-80
2022/04/25 04:32:43;;;;;;;;;;;;;;;-146.64;100.00;93893.06;5005292;28;20052;-80
2022/04/25 04:35:11;;;;;;;23.15;10.65;;;;;;;-146.64;100.00;93893.06;5014001;28;19913;-80
2022/04/25 04:37:37;;;;;;;22.55;10.52;;;;;;;-146.64;100.00;94424.25;4994416;28;20056;-80
2022/04/25 04:42:48;;;;;;;21.08;9.65;;;;;;;-146.64;100.00;95221.19;5021208;28;20055;-79
2022/04/25 04:45:15;;;;;;;18.73;10.75;;;;;;;-146.64;100.00;95486.84;4989396;28;20454;-80
2022/04/25 04:47:41;;;;;;;;;;;;;;;-146.64;100.00;95752.53;5028412;28;20017;-79
2022/04/25 04:50:10;;;;;;;13.57;9.23;;;;;;;-146.64;100.00;96283.97;5001779;28;19947;-79
2022/04/25 04:52:35;;;;;;;27.77;10.88;;;;;;;-146.64;100.00;95221.19;5026328;28;20029;-79
2022/04/25 04:55:00;;;;;;;19.52;11.10;;;;;;;-146.64;100.00;93361.97;5016027;28;20053;-80
2022/04/25 04:57:26;;;;;;;20.85;10.32;;;;;;;-146.64;100.00;90707.41;5015399;28;20057;-80
2022/04/25 04:59:51;;;;;;;20.88;9.50;;;;;;;-146.64;100.00;86728.88;5002086;28;20053;-80
2022/04/25 05:02:17;;;;;;;20.55;10.40;;;;;;;-146.64;100.00;82489.44;5001112;28;20369;-80
2022/04/25 05:04:46;;;;;;;19.37;10.33;;;;;;;-146.64;100.00;80371.41;5002969;28;20043;-80
2022/04/25 05:07:12;;;;;;;17.63;9.18;;;;;;;-146.64;100.00;76667.50;5010035;28;20041;-80
2022/04/25 05:09:38;;;;;;;15.02;8.98;;;;;;;-146.64;100.00;75081.16;5003935;28;20079;-80
2022/04/25 05:12:04;;;;;;;20.20;8.70;;;;;;;-146.64;100.00;73495.47;5023962;28;20030;-81
2022/04/25 05:14:31;;;;;;;16.63;8.55;;;;;;;-146.64;100.00;72967.03;4998366;28;20026;-79
2022/04/25 05:16:56;;;;;;;12.18;8.43;;;;;;;-146.64;100.00;69533.94;4998961;28;20067;-80
2022/04/25 05:19:23;;;;;;;12.70;8.45;;;;;;;-146.64;100.00;68478.19;5005822;28;20527;-80
2022/04/25 05:21:48;;;;;;;;;;;;;;;-146.64;100.00;68214.31;5012719;28;20473;-79
2022/04/25 05:24:15;;;;;;;15.20;6.88;;;;;;;-146.64;100.00;63994.41;5013850;28;19921;-80
2022/04/25 05:26:40;;;;;;;11.23;7.93;;;;;;;-146.64;100.00;67422.72;4997782;28;20022;-80
2022/04/25 05:29:06;;;;;;;13.20;8.47;;;;;;;-146.64;100.00;72174.50;5021811;28;20097;-80
2022/04/25 05:31:33;;;;;;;13.05;8.35;;;;;;;-146.64;100.00;75609.88;5018714;28;20060;-79
2022/04/25 05:33:59;;;;;;;13.90;8.25;;;;;;;-146.64;100.00;79048.19;5002192;28;20057;-80
2022/04/25 05:36:25;;;;;;;14.50;8.45;;;;;;;-146.64;100.00;80636.09;5014749;28;20336;-80
2022/04/25 05:38:51;;;;;;;15.23;9.52;;;;;;;-146.64;100.00;75345.50;4991435;28;20052;-80
2022/04/25 05:41:16;;;;;;;13.70;8.43;;;;;;;-146.64;100.00;70589.97;4978221;28;20037;-80
2022/04/25 05:43:42;;;;;;;11.88;8.82;;;;;;;-146.64;100.00;69533.94;5036020;28;20034;-79
2022/04/25 05:46:07;;;;;;;14.23;8.70;;;;;;;-146.64;100.00;70854.00;5010151;28;20060;-79
2022/04/25 05:54:01;;;;;;;16.23;9.80;;;;;;;-146.64;100.00;74816.84;5012843;28;20040;-81
2022/04/25 05:56:27;;;;;;;17.83;10.27;;;;;;;-146.64;100.00;75874.25;5018996;28;20088;-81
2022/04/25 05:58:52;;;;;;;15.80;9.85;;;;;;;-146.64;100.00;75874.25;5011125;28;20497;-80
2022/04/25 06:01:18;;;;;;;21.08;11.32;;;;;;;-146.64;100.00;71646.25;5009635;28;20036;-81
2022/04/25 06:03:43;;;;;;;21.50;11.45;;;;;;;-146.64;100.00;70589.97;4995076;28;20049;-82
2022/04/25 06:06:08;;;;;;;18.13;10.88;;;;;;;-146.64;100.00;68742.09;5003149;28;20040;-80
2022/04/25 06:08:34;;;;;;;16.05;10.55;;;;;;;-146.64;100.00;66103.78;4997744;28;20109;-81
2022/04/25 06:10:59;;;;;;;20.13;11.40;;;;;;;-146.64;100.00;63994.41;5000062;28;20439;-81
2022/04/25 06:13:25;;;;;;;21.53;12.33;;;;;;;-146.64;100.00;62413.09;5027074;28;20436;-81
2022/04/25 06:15:51;;;;;;;31.45;13.15;;;;;;;-146.64;100.00;61359.25;5019593;28;20068;-81
2022/04/25 06:18:16;;;;;;;19.15;11.75;;;;;;;-146.64;100.00;60042.31;5008446;28;20041;-81
2022/04/25 06:20:42;;;;;;;16.63;10.63;;;;;;;-146.64;100.00;52761.84;4993826;28;20117;-81
2022/04/25 06:23:07;;;;;;;22.73;12.77;;;;;;;-146.64;100.00;44174.84;5005439;28;20116;-80
2022/04/25 06:25:32;;;;;;;25.60;11.90;;;;;;;-146.64;100.00;41847.72;4996473;28;20033;-81
2022/04/25 06:28:00;;;;;;;22.80;12.87;;;;;;;-146.64;100.00;41761.72;5017378;28;20033;-81
2022/04/25 06:30:28;;;;;;;23.27;12.00;;;;;;;-146.64;100.00;42109.88;5003041;28;20031;-81
2022/04/25 06:32:54;;;;;;;19.10;12.57;;;;;;;-146.64;100.00;43033.66;4995805;28;20504;-81
2022/04/25 06:35:20;;;;;;;17.77;11.52;;;;;;;-146.64;100.00;42658.78;5009198;28;20061;-81
2022/04/25 06:37:45;;;;;;;24.60;12.67;;;;;;;-146.64;100.00;42343.34;5010113;28;20046;-81
2022/04/25 06:40:11;;;;;;;27.40;12.97;;;;;;;-146.64;100.00;40430.81;4997682;28;20037;-81
2022/04/25 06:42:36;;;;;;;19.27;12.52;;;;;;;-146.64;100.00;40109.44;5005022;28;20366;-81
2022/04/25 06:45:02;;;;;;;22.70;13.48;;;;;;;-146.64;100.00;39929.31;5003814;28;20068;-80
2022/04/25 06:47:27;;;;;;;20.30;12.30;;;;;;;-146.64;100.00;39661.16;4987373;28;20124;-81
2022/04/25 06:49:54;;;;;;;17.70;12.00;;;;;;;-146.64;100.00;39632.50;4993976;28;20061;-80
2022/04/25 06:52:20;;;;;;;19.48;12.38;;;;;;;-146.64;100.00;39786.03;5001619;28;20022;-80
2022/04/25 06:54:50;;;;;;;16.98;12.77;;;;;;;-146.64;100.00;39779.88;5008269;28;20049;-80
2022/04/25 06:57:15;;;;;;;20.10;12.40;;;;;;;-146.64;100.00;39923.16;4998509;28;20189;-81
2022/04/25 06:59:42;;;;;;;26.37;13.23;;;;;;;-146.64;100.00;39812.63;5007947;28;20037;-81
2022/04/25 07:02:07;;;;;;;17.63;13.30;;;;;;;-146.64;100.00;39612.03;5005443;28;20389;-81
2022/04/25 07:04:32;;;;;;;22.30;13.02;;;;;;;-146.64;100.00;39522.00;5017245;28;20036;-80
2022/04/25 07:06:58;;;;;;;24.27;14.30;;;;;;;-146.64;100.00;39837.19;4991336;28;20071;-81
2022/04/25 07:09:23;;;;;;;20.67;13.88;;;;;;;-146.64;100.00;39734.84;5016682;28;20061;-80
2022/04/25 07:11:48;;;;;;;19.93;12.63;;;;;;;-146.64;100.00;40082.81;5002083;28;20018;-81
2022/04/25 07:14:15;;;;;;;24.17;13.93;;;;;;;-146.64;100.00;40013.22;4995200;28;20046;-79
2022/04/25 07:16:45;;;;;;;19.63;14.05;;;;;;;-146.64;100.00;39992.75;5001971;28;20022;-77
2022/04/25 07:19:17;;;;;;;22.88;14.65;;;;;;;-146.64;100.00;40514.75;5004853;28;20048;-79
2022/04/25 07:29:54;;;;;;;20.17;13.05;;;;;;;-146.64;100.00;42097.59;5013083;28;20102;-80
2022/04/25 07:32:20;;;;;;;19.67;14.00;;;;;;;-146.64;100.00;42757.13;4987957;28;20018;-80
2022/04/25 07:34:47;;;;;;;21.10;13.85;;;;;;;-146.64;100.00;42638.31;4980671;28;20089;-79
2022/04/25 07:37:13;;;;;;;17.20;12.40;;;;;;;-146.64;100.00;41716.66;5003858;28;20034;-81
2022/04/25 07:39:41;;;;;;;16.98;12.52;;;;;;;-146.64;100.00;40672.41;5009108;28;20425;-81
2022/04/25 07:42:06;;;;;;;20.65;12.45;;;;;;;-146.64;100.00;40193.38;4987259;28;21953;-81
2022/04/25 07:44:32;;;;;;;20.30;12.50;;;;;;;-146.64;100.00;39677.53;5001305;28;20037;-80
2022/04/25 07:46:58;;;;;;;12.43;10.07;;;;;;;-146.64;100.00;39292.75;4986565;28;20146;-80
2022/04/25 07:49:23;;;;;;;19.65;11.07;;;;;;;-146.64;100.00;39288.66;4995398;28;20524;-80
2022/04/25 07:51:49;;;;;;;18.45;11.50;;;;;;;-146.64;100.00;39268.19;5005941;28;20153;-79
2022/04/25 07:54:15;;;;;;;17.07;10.47;;;;;;;-146.64;100.00;39339.84;4989840;28;20618;-79
2022/04/25 07:56:42;;;;;;;11.83;9.70;;;;;;;-146.64;100.00;39282.53;4985146;28;20385;-80
2022/04/25 07:59:08;;;;;;;12.52;8.52;;;;;;;-146.64;100.00;39169.97;4996272;28;20026;-81
2022/04/25 08:01:34;;;;;;;10.43;8.03;;;;;;;-146.64;100.00;39149.50;5001918;28;20045;-80
2022/04/25 08:03:59;;;;;;;11.93;8.47;;;;;;;-146.64;100.00;39196.56;5005695;28;20686;-80
2022/04/25 08:06:25;;;;;;;14.98;7.97;;;;;;;-146.64;100.00;39169.97;4998630;28;20032;-79
2022/04/25 08:08:51;;;;;;;10.83;8.47;;;;;;;-146.64;100.00;39145.41;5009236;28;20026;-80
2022/04/25 08:11:17;;;;;;;13.27;9.30;;;;;;;-146.64;100.00;39172.00;4986395;28;20396;-79
2022/04/25 08:19:13;;;;;;;16.25;12.13;;;;;;;-146.64;100.00;40359.19;5007419;28;20103;-78
2022/04/25 08:21:38;;;;;;;;;;;;;;;-146.64;100.00;44760.94;5029929;28;20376;-80
2022/04/25 08:24:04;;;;;;;18.95;13.23;;;;;;;-146.64;100.00;55568.03;4990339;28;19917;-80
2022/04/25 08:26:29;;;;;;;18.53;12.43;;;;;;;-146.64;100.00;61622.69;5008424;28;20049;-79
2022/04/25 08:28:55;;;;;;;19.00;13.85;;;;;;;-146.64;100.00;65048.97;4996000;28;20125;-79
2022/04/25 08:31:21;;;;;;;20.57;14.10;;;;;;;-146.64;100.00;68478.19;5006859;28;20440;-80
2022/04/25 08:33:48;;;;;;;24.90;14.30;;;;;;;-146.64;100.00;73759.69;5003259;28;20026;-79
2022/04/25 08:36:13;;;;;;;23.05;14.68;;;;;;;-146.64;100.00;77725.41;4993645;28;20454;-79
2022/04/25 08:38:43;;;;;;;20.48;14.18;;;;;;;-146.64;100.00;79048.19;5000831;28;20087;-79
2022/04/25 08:41:10;;;;;;;24.35;15.13;;;;;;;-146.64;100.00;84608.59;4988667;28;20042;-79
2022/04/25 08:43:35;;;;;;;;;;;;;;;-146.64;100.00;83813.78;4992839;28;20133;-79
2022/04/25 08:46:01;;;;;;;21.00;15.48;;;;;;;-146.64;100.00;84608.59;4993821;28;20036;-79
2022/04/25 08:48:26;;;;;;;22.05;15.50;;;;;;;-146.64;100.00;81430.28;5003219;28;20469;-79
2022/04/25 08:50:52;;;;;;;30.67;16.65;;;;;;;-146.64;100.00;79577.41;4993476;28;20365;-79
2022/04/25 08:53:18;;;;;;;24.43;15.87;;;;;;;-146.64;100.00;80636.09;4983651;28;20037;-80
2022/04/25 08:55:44;;;;;;;25.25;15.73;;;;;;;-146.64;100.00;81959.81;4995231;28;20022;-80
2022/04/25 08:58:11;;;;;;;24.08;15.65;;;;;;;-146.64;100.00;82224.63;5018516;28;20033;-79
2022/04/25 09:00:36;;;;;;;25.25;16.27;;;;;;;-146.64;100.00;79842.06;4991673;28;20432;-79
2022/04/25 09:03:01;;;;;;;23.70;14.95;;;;;;;-146.64;100.00;81695.03;5016394;28;20041;-79
2022/04/25 09:05:27;;;;;;;23.67;16.08;;;;;;;-146.64;100.00;81165.53;5010722;28;20045;-80
2022/04/25 09:07:52;;;;;;;20.85;15.45;;;;;;;-146.64;100.00;81695.03;5005730;28;20042;-80
2022/04/25 09:10:19;;;;;;;20.40;14.30;;;;;;;-146.64;100.00;79577.41;5002521;28;20030;-80
2022/04/25 09:12:46;;;;;;;19.73;14.75;;;;;;;-146.64;100.00;83813.78;4996898;28;20037;-81
2022/04/25 09:15:12;;;;;;;31.30;16.05;;;;;;;-146.64;100.00;83019.13;4998737;28;20026;-81
2022/04/25 09:17:38;;;;;;;21.53;14.67;;;;;;;-146.64;100.00;81430.28;4994871;28;20088;-81
2022/04/25 09:20:05;;;;;;;23.23;16.20;;;;;;;-146.64;100.00;80106.72;5002033;28;20491;-81
2022/04/25 09:22:32;;;;;;;;;;;;;;;-146.64;100.00;77989.94;4979504;28;20025;-81
2022/04/25 09:25:04;;;;;;;21.70;14.02;;;;;;;-146.64;100.00;75081.16;5010718;28;19996;-82
2022/04/25 09:27:29;;;;;;;22.98;14.30;;;;;;;-146.64;100.00;74023.97;5014100;28;20050;-82
2022/04/25 09:29:54;;;;;;;19.57;13.97;;;;;;;-146.64;100.00;72438.66;5001212;28;20060;-81
2022/04/25 09:32:31;;;;;;;20.47;14.33;;;;;;;-146.64;100.00;77460.91;5013024;28;20033;-81
2022/04/25 09:35:05;;;;;;;17.93;14.30;;;;;;;-146.64;100.00;74816.84;5000240;28;20021;-81
2022/04/25 09:37:46;;;;;;;20.85;14.13;;;;;;;-146.64;100.00;67422.72;4993516;28;20028;-81
2022/04/25 09:40:15;;;;;;;20.75;13.90;;;;;;;-146.64;100.00;64785.31;4993438;28;20369;-81
2022/04/25 09:42:40;;;;;;;21.63;14.35;;;;;;;-146.64;100.00;72174.50;4987068;28;20062;-80
2022/04/25 09:45:06;;;;;;;28.73;14.17;;;;;;;-146.64;100.00;72967.03;5002436;28;20534;-81
2022/04/25 09:47:36;;;;;;;19.30;14.02;;;;;;;-146.64;100.00;71646.25;4979828;28;20040;-82
2022/04/25 09:50:12;;;;;;;18.92;13.60;;;;;;;-146.64;100.00;66367.56;5009911;28;20044;-81
2022/04/25 09:52:53;;;;;;;20.08;14.30;;;;;;;-146.64;100.00;70589.97;5004947;28;20025;-82
2022/04/25 09:55:19;;;;;;;18.75;13.70;;;;;;;-146.64;100.00;65312.66;4994874;28;20120;-82
2022/04/25 09:57:46;;;;;;;22.27;14.23;;;;;;;-146.64;100.00;71646.25;4987514;28;20037;-80
2022/04/25 10:00:13;;;;;;;20.50;13.35;;;;;;;-146.64;100.00;72438.66;4994232;28;20034;-81
2022/04/25 10:02:42;;;;;;;19.90;13.55;;;;;;;-146.64;100.00;70325.94;5017131;28;20102;-81
2022/04/25 10:05:15;;;;;;;14.63;11.90;;;;;;;-146.64;100.00;64258.03;5014880;28;20045;-80
2022/04/25 10:07:41;;;;;;;16.20;11.60;;;;;;;-146.64;100.00;66103.78;4985468;28;20033;-80
2022/04/25 10:10:08;;;;;;;15.67;11.97;;;;;;;-146.64;100.00;64785.31;5001271;28;20052;-81
2022/04/25 10:12:36;;;;;;;15.35;11.70;;;;;;;-146.64;100.00;64785.31;5012359;28;20041;-81
2022/04/25 10:15:03;;;;;;;16.20;11.65;;;;;;;-146.64;100.00;69006.03;4994410;28;20041;-80
2022/04/25 10:17:29;;;;;;;14.43;11.70;;;;;;;-146.64;100.00;70325.94;4990102;28;20397;-79
2022/04/25 10:19:55;;;;;;;15.27;11.33;;;;;;;-146.64;100.00;66631.31;4999445;28;20068;-79
2022/04/25 10:22:21;;;;;;;16.00;11.88;;;;;;;-146.64;100.00;65048.97;4995086;28;20041;-80
2022/04/25 10:24:47;;;;;;;13.95;10.90;;;;;;;-146.64;100.00;50409.13;5001836;28;20030;-80
2022/04/25 10:27:15;;;;;;;18.45;11.50;;;;;;;-146.64;100.00;54253.00;5013193;28;20045;-80
2022/04/25 10:29:49;;;;;;;14.63;11.05;;;;;;;-146.64;100.00;49331.78;4997295;28;20041;-80
2022/04/25 10:32:20;;;;;;;13.30;10.63;;;;;;;-146.64;100.00;50762.16;5000664;28;20083;-81
2022/04/25 10:34:48;;;;;;;16.55;11.80;;;;;;;-146.64;100.00;55568.03;5010030;28;20755;-80
2022/04/25 10:37:30;;;;;;;17.10;11.68;;;;;;;-146.64;100.00;60832.41;5011186;28;20121;-80
2022/04/25 10:39:56;;;;;;;17.20;13.27;;;;;;;-146.64;100.00;63203.69;4999723;28;20042;-80
2022/04/25 10:45:06;;;;;;;14.65;11.40;;;;;;;-146.64;100.00;62940.13;5000303;28;20052;-80
2022/04/25 10:47:31;;;;;;;13.93;11.43;;;;;;;-146.64;100.00;73495.47;5005101;28;20025;-80
2022/04/25 10:49:57;;;;;;;17.33;11.90;;;;;;;-146.64;100.00;73231.22;4983198;28;20124;-81
2022/04/25 10:52:32;;;;;;;18.27;11.67;;;;;;;-146.64;100.00;72702.84;5003107;28;20040;-80
2022/04/25 10:55:20;;;;;;;18.25;11.90;;;;;;;-146.64;100.00;76403.06;5013148;28;20034;-80
2022/04/25 10:58:03;;;;;;;16.90;11.77;;;;;;;-146.64;100.00;72438.66;5014170;28;20062;-80
2022/04/25 11:00:41;;;;;;;17.38;11.85;;;;;;;-146.64;100.00;75609.88;5024007;28;20021;-80
2022/04/25 11:03:07;;;;;;;18.92;12.38;;;;;;;-146.64;100.00;79312.78;5020550;28;20030;-80
2022/04/25 11:05:35;;;;;;;16.48;12.70;;;;;;;-146.64;100.00;78783.59;5007064;28;20135;-80
2022/04/25 11:08:15;;;;;;;20.50;11.75;;;;;;;-146.64;100.00;82224.63;5000205;28;20026;-81
2022/04/25 11:10:57;;;;;;;14.00;11.73;;;;;;;-146.64;100.00;75081.16;5011848;28;20049;-79
2022/04/25 11:13:23;;;;;;;13.73;10.73;;;;;;;-146.64;100.00;74816.84;5012216;28;20030;-80
2022/04/25 11:15:58;;;;;;;15.93;11.02;;;;;;;-146.64;100.00;75609.88;5007232;28;20080;-80
2022/04/25 11:18:36;;;;;;;15.23;11.45;;;;;;;-146.64;100.00;71646.25;5022996;28;20033;-79
2022/04/25 11:21:07;;;;;;;14.38;12.15;;;;;;;-146.64;100.00;71382.16;5001081;28;20358;-80
2022/04/25 11:23:47;;;;;;;19.58;12.45;;;;;;;-146.64;100.00;73495.47;5005063;28;20029;-81
2022/04/25 11:26:18;;;;;;;15.00;11.43;;;;;;;-146.64;100.00;76403.06;5003677;28;20034;-80
2022/04/25 11:29:03;;;;;;;14.25;10.77;;;;;;;-146.64;100.00;69006.03;5006982;28;20090;-79